RÉSULTATS    Cross Sud Ouest Gujan-Mestras - Édition du 20/11/2016


Vous pouvez changer la distance ici.

Vous pouvez changer la distance ici.

Classement PDF Général Classement PDF Alphabétique Photos de l'évènement Classement Temps Réel - Temps Puce

76 participants - Femmes - 59 Hommes
13 licenciés (17%) - 63 non-licenciés (83%)

Temps moyen : 00:49:32




Pos. Temps Nom - Prénom Club Dossard Catégorie km/h
26 00:44:53 TESSEREAU Stephane ASCBEC 326 M1M (9 / 15) 12.7
27 00:45:09 BERTHOZAT Julien 381 SEM (9 / 20) 12.6
28 00:45:57 PONTALIER Ludovic 342 SEM (10 / 20) 12.4
29 00:46:19 DANG Clement 367 SEM (11 / 20) 12.3
30 00:46:32 SERIE Remi 328 SEM (12 / 20) 12.2
31 00:47:19 GOROSTIDI Benoit 376 SEM (13 / 20) 12.0
32 00:47:28 FLECHEUX Marc 350 M2M (5 / 12) 12.0
33 00:47:28 EARIS Thierry 384 M2M (6 / 12) 12.0
34 00:48:12 TARRADE Yves 382 M1M (10 / 15) 11.8
35 00:48:13 AEPIN Laurent TRI ARCACHON SUD BASSIN 310 M2M (7 / 12) 11.8
36 00:48:14 RANDRIAMALALA Andry 320 SEM (14 / 20) 11.8
37 00:48:29 DEWEZ Michael 363 M2M (8 / 12) 11.8
38 00:48:31 FERME Philippe 327 M1M (11 / 15) 11.7
39 00:48:32 AUBERT MAGUERO Cyril 369 SEM (15 / 20) 11.7
40 00:48:35 GEORGES Aymeric PSR 383 SEM (16 / 20) 11.7
41 00:49:50 ARTIGUES Max 307 ESM (3 / 3) 11.4
42 00:49:58 CLERMONT Alban 352 JUM (2 / 2) 11.4
43 00:50:03 LANSALOT GNE Christian 344 M3M (2 / 6) 11.4
44 00:50:17 CHABENAT Gwenael PAGE BLANCHE SUD OUEST 379 M1M (12 / 15) 11.3
45 00:50:39 GALLARDO Alain 330 M1M (13 / 15) 11.2
46 00:50:43 BORDESSOULE Nathalie 309 M2F (1 / 3) 11.2
47 00:50:43 GORIE Celine AMICALE LAIQUE BOURG SPORTS 370 M1F (1 / 7) 11.2
48 00:50:55 CRESSON Jean lou UA GUJAN-MESTRAS 301 M3M (3 / 6) 11.2
49 00:50:57 DEISS France 337 SEF (2 / 7) 11.2
50 00:51:43 BORDESSOULE Jean louis 315 M3M (4 / 6) 11.0